Priština, Kosovo

9:58 AM CET en Noviembre 01, 2014 (GMT +0100)
KHMI Prishtina | Change Station
CLOSE
Current Station
Estación meteorológica personal
Location: Pristina,
Altura: 1886 ft
Estaciones meteorológicas cercanas

Alt 1886 ft 42.65 °N, 21.14 °E | Updated 13 minutes ago

Overcast
Nublado
44.4 ° F
Sensación térmica 44 ° F
N
1.6
Viento Variable Viento desde Este
Gusts 3.1 mph

Hoy
Alta -- | Baja -- ° F
--% Posibilidad de precipitaciones
Ayer
Alta -- | Baja -- ° F
Precip. -- pul
6:08 AM 4:28 PM
Gibosa creciente, 64% visible
Presión 30.33 pul
Visibilidad 6.2 Millas
Nubes Nublado 3900 ft
Vientos helados 44 ° F
Punto de rocío 36 ° F
Humedad 73%
Precipitaciones 0.00 pul
Espesor de la nieve No disponible.
UV 1 de una escala de 12
Polen No disponible.
Calidad del aire No disponible.
Flu Activity No disponible.
METAR LWSK 010830Z 30004KT 270V340 9999 OVC039 10/03 Q1027 NOSIG

More Conditions Fewer Conditions

Presión 30.33 pul
Visibilidad 6.2 Millas
Nubes Nublado 3900 ft
Vientos helados 44 ° F
Punto de rocío 36 ° F
Humedad 73%
Precipitaciones 0.00 pul
Espesor de la nieve No disponible.
UV 1 de una escala de 12
Polen No disponible.
Calidad del aire No disponible.
Flu Activity No disponible.
METAR LWSK 010830Z 30004KT 270V340 9999 OVC039 10/03 Q1027 NOSIG

More Conditions Fewer Conditions

10-Day Weather Forecast

Almanac

Astronomía

Nov. 01, 2014 Salida Puesta
Hora real
Crepúsculo civil
Crepúsculo náutico
Crepúsculo astronómico
Luna
Horas de luz
Horas de luz
Tomorrow will be .
, % of the Moon is Illuminated

Extremos de hoy

Máximos del país Bajas del país

Community

WunderPhotos

Upload Photos

1,766,871 ¡fotos cargadas!

WunderBlogs® & News

Nearby

Calidad del aire

  Calidad del aire Índice AQ Contaminante
Not available.

Grosos de nieve

Estación Profundido Altura

Actividad de terremotos

Ciudad Distance Mag. Tiempo y dato
Magnitud mínima muestra es 2,5.

Temperaturas de aguas costeras

Lugar Temperatura

Estaciones meteorológicas cercanas